Time;durP1;ratioP1;P1;durP2;ratioP2;P2;SDS_P1;SDS_P2;PMS_P1;PMS_P2;Temp;Humidity;BMP_temperature;BMP_pressure;BME280_temperature;BME280_humidity;BME280_pressure;Samples;Min_cycle;Max_cycle;Signal;HPM_P1;HPM_P2
2021/09/22 00:01:13;;;;;;;12.98;8.60;;;;;;;9.63;77.31;99182.59;5007644;28;20038;-75
2021/09/22 00:03:38;;;;;;;10.90;7.15;;;;;;;9.64;77.01;99181.50;5008395;28;20073;-77
2021/09/22 00:06:04;;;;;;;10.50;6.45;;;;;;;9.64;76.83;99186.97;5007239;28;20466;-75
2021/09/22 00:08:29;;;;;;;14.75;7.97;;;;;;;9.66;77.19;99182.06;5007213;28;20036;-75
2021/09/22 00:10:55;;;;;;;10.82;6.63;;;;;;;9.58;77.57;99177.13;5006426;28;20030;-74
2021/09/22 00:13:21;;;;;;;9.65;6.18;;;;;;;9.58;77.24;99182.63;5007950;28;20018;-75
2021/09/22 00:15:46;;;;;;;10.63;7.53;;;;;;;9.58;77.68;99174.41;5008362;28;20018;-75
2021/09/22 00:18:12;;;;;;;9.25;7.07;;;;;;;9.54;77.79;99182.31;5012233;28;20018;-75
2021/09/22 00:20:38;;;;;;;11.75;7.78;;;;;;;9.48;77.75;99169.72;5008521;28;20030;-75
2021/09/22 00:23:05;;;;;;;9.55;6.35;;;;;;;9.48;78.44;99167.81;5007595;28;20033;-74
2021/09/22 00:25:32;;;;;;;11.02;7.03;;;;;;;9.46;78.04;99167.25;4990425;28;20474;-75
2021/09/22 00:28:00;;;;;;;9.73;6.47;;;;;;;9.49;78.13;99165.88;4989637;28;20423;-75
2021/09/22 00:30:25;;;;;;;8.55;6.18;;;;;;;9.50;77.99;99167.53;5008444;28;20534;-75
2021/09/22 00:32:52;;;;;;;10.60;7.22;;;;;;;9.53;78.25;99158.75;4992516;28;20477;-75
2021/09/22 00:35:17;;;;;;;8.50;6.05;;;;;;;9.54;77.87;99165.88;5008368;28;20022;-75
2021/09/22 00:37:43;;;;;;;7.57;5.32;;;;;;;9.55;78.04;99164.78;5007930;28;20626;-75
2021/09/22 00:40:09;;;;;;;9.13;6.78;;;;;;;9.55;77.73;99166.72;5007809;28;20026;-75
2021/09/22 00:42:34;;;;;;;7.32;5.43;;;;;;;9.53;77.54;99161.50;5006892;28;20034;-76
2021/09/22 00:45:08;;;;;;;9.55;6.75;;;;;;;9.51;77.82;99150.00;5006944;28;20044;-75
2021/09/22 00:47:35;;;;;;;8.75;6.15;;;;;;;9.50;77.88;99153.84;5005956;28;20534;-75
2021/09/22 00:50:00;;;;;;;7.97;5.25;;;;;;;9.52;77.97;99154.38;5008840;28;20053;-75
2021/09/22 00:52:26;;;;;;;6.65;4.50;;;;;;;9.48;77.80;99151.38;4990827;28;20026;-76
2021/09/22 00:54:52;;;;;;;7.85;5.95;;;;;;;9.47;77.58;99144.25;5008041;28;20044;-76
2021/09/22 00:57:18;;;;;;;8.55;5.82;;;;;;;9.55;78.50;99142.09;4989271;28;20025;-75
2021/09/22 00:59:44;;;;;;;6.93;5.43;;;;;;;9.56;78.02;99141.78;5006925;28;20042;-75
2021/09/22 01:02:10;;;;;;;7.18;5.20;;;;;;;9.57;78.16;99145.38;5006963;28;20109;-75
2021/09/22 01:04:37;;;;;;;10.27;7.10;;;;;;;9.53;78.73;99139.59;5009209;28;20046;-74
2021/09/22 01:07:08;;;;;;;12.27;8.48;;;;;;;9.51;78.03;99128.94;5012899;28;20075;-75
2021/09/22 01:09:34;;;;;;;8.32;5.55;;;;;;;9.51;77.89;99134.41;5010419;28;20029;-74
2021/09/22 01:12:00;;;;;;;9.43;5.68;;;;;;;9.52;78.57;99127.00;5012457;28;20030;-74
2021/09/22 01:14:26;;;;;;;7.63;5.50;;;;;;;9.50;77.72;99130.03;5011482;28;20026;-76
2021/09/22 01:16:52;;;;;;;7.43;5.47;;;;;;;9.48;77.92;99126.75;4993561;28;20022;-76
2021/09/22 01:19:20;;;;;;;6.63;5.43;;;;;;;9.46;77.73;99125.34;5010278;28;20056;-75
2021/09/22 01:21:50;;;;;;;6.72;5.15;;;;;;;9.45;78.71;99123.69;5009022;28;20026;-75
2021/09/22 01:24:15;;;;;;;8.25;5.75;;;;;;;9.48;78.44;99123.16;5007258;28;20030;-75
2021/09/22 01:26:42;;;;;;;8.43;5.30;;;;;;;9.55;78.37;99128.38;5010702;28;20035;-76
2021/09/22 01:29:07;;;;;;;7.15;5.22;;;;;;;9.56;78.32;99119.06;5012615;28;20466;-75
2021/09/22 01:31:35;;;;;;;7.72;5.00;;;;;;;9.53;77.79;99117.69;5011275;28;20045;-76
2021/09/22 01:34:01;;;;;;;8.75;6.00;;;;;;;9.53;78.15;99115.78;5010266;28;20052;-76
2021/09/22 01:36:26;;;;;;;8.43;6.28;;;;;;;9.60;77.87;99120.16;5010239;28;20025;-76
2021/09/22 01:38:53;;;;;;;6.82;5.63;;;;;;;9.66;77.95;99114.41;4993448;28;20018;-76
2021/09/22 01:41:19;;;;;;;7.53;4.95;;;;;;;9.68;78.05;99112.22;5007397;28;20053;-76
2021/09/22 01:43:45;;;;;;;8.35;5.35;;;;;;;9.69;77.76;99113.03;5008715;28;20029;-75
2021/09/22 01:46:11;;;;;;;7.28;5.43;;;;;;;9.68;77.52;99111.38;5009490;28;20029;-75
2021/09/22 01:48:37;;;;;;;6.50;5.13;;;;;;;9.68;77.12;99106.75;5009718;28;20018;-75
2021/09/22 01:51:05;;;;;;;8.98;5.72;;;;;;;9.70;77.31;99111.13;5010192;28;20222;-75
2021/09/22 01:53:30;;;;;;;7.88;5.20;;;;;;;9.75;77.20;99105.66;5010187;28;20037;-75
2021/09/22 01:55:58;;;;;;;9.52;5.70;;;;;;;9.80;77.38;99102.88;5010779;28;20034;-76
2021/09/22 01:58:25;;;;;;;7.85;5.03;;;;;;;9.83;77.21;99100.44;5010455;28;20038;-75
2021/09/22 02:00:52;;;;;;;9.00;6.10;;;;;;;9.89;77.46;99095.75;5009090;28;20112;-76
2021/09/22 02:03:18;;;;;;;10.13;7.00;;;;;;;9.93;76.36;99101.53;5009400;28;20054;-76
2021/09/22 02:05:45;;;;;;;8.73;5.72;;;;;;;9.95;76.90;99093.84;5009940;28;20185;-74
2021/09/22 02:08:11;;;;;;;8.70;5.07;;;;;;;9.91;76.56;99093.56;5009873;28;20023;-76
2021/09/22 02:10:36;;;;;;;7.38;5.07;;;;;;;9.90;76.36;99100.16;5009949;28;20080;-75
2021/09/22 02:13:02;;;;;;;7.50;5.38;;;;;;;9.84;76.24;99093.03;5010900;28;20263;-75
2021/09/22 02:15:27;;;;;;;7.20;5.22;;;;;;;9.81;76.62;99097.16;5010742;28;20029;-75
2021/09/22 02:17:54;;;;;;;7.45;5.35;;;;;;;9.77;76.42;99081.56;5007634;28;20037;-75
2021/09/22 02:20:20;;;;;;;6.90;4.60;;;;;;;9.73;75.84;99086.75;5009312;28;20078;-76
2021/09/22 02:22:45;;;;;;;8.27;5.20;;;;;;;9.74;76.15;99073.88;5009978;28;20143;-75
2021/09/22 02:25:12;;;;;;;8.23;5.53;;;;;;;9.72;76.23;99067.84;5010612;28;20037;-76
2021/09/22 02:27:38;;;;;;;8.32;4.90;;;;;;;9.71;76.10;99069.75;5009636;28;20621;-75
2021/09/22 02:30:09;;;;;;;7.78;5.13;;;;;;;9.75;75.97;99067.31;5009858;28;20528;-74
2021/09/22 02:32:36;;;;;;;7.15;5.05;;;;;;;9.75;75.45;99078.25;5010039;28;20683;-75
2021/09/22 02:35:02;;;;;;;7.75;4.80;;;;;;;9.82;75.99;99067.81;5008169;28;20029;-75
2021/09/22 02:37:28;;;;;;;7.43;4.75;;;;;;;9.81;76.12;99072.50;5009464;28;20026;-75
2021/09/22 02:39:55;;;;;;;10.30;6.43;;;;;;;9.80;75.96;99068.09;5011192;28;20036;-75
2021/09/22 02:42:22;;;;;;;7.90;4.95;;;;;;;9.78;75.74;99067.56;4991635;28;20517;-74
2021/09/22 02:44:47;;;;;;;7.80;4.88;;;;;;;9.80;75.76;99059.91;5008458;28;20030;-74
2021/09/22 02:47:14;;;;;;;6.88;4.60;;;;;;;9.80;75.80;99062.63;5007785;28;20048;-74
2021/09/22 02:49:40;;;;;;;6.80;4.72;;;;;;;9.81;76.07;99060.69;5007769;28;20120;-74
2021/09/22 02:52:05;;;;;;;5.80;4.05;;;;;;;9.77;76.05;99065.91;5007678;28;20113;-74
2021/09/22 02:54:31;;;;;;;8.95;5.30;;;;;;;9.78;75.89;99056.59;5008675;28;20116;-75
2021/09/22 02:56:57;;;;;;;7.57;5.05;;;;;;;9.78;75.73;99051.13;5004493;28;20068;-74
2021/09/22 02:59:22;;;;;;;7.25;4.72;;;;;;;9.79;76.16;99050.03;5010000;28;20029;-75
2021/09/22 03:01:48;;;;;;;7.82;4.82;;;;;;;9.80;75.48;99050.84;5008554;28;20025;-75
2021/09/22 03:04:13;;;;;;;7.90;5.63;;;;;;;9.79;75.35;99044.56;5002678;28;20046;-75
2021/09/22 03:06:39;;;;;;;9.25;5.60;;;;;;;9.83;75.85;99044.81;5006460;28;20488;-75
2021/09/22 03:09:04;;;;;;;7.20;4.82;;;;;;;9.83;75.90;99051.13;5007999;28;20037;-75
2021/09/22 03:11:30;;;;;;;8.88;5.40;;;;;;;9.83;75.19;99036.59;5008059;28;20787;-75
2021/09/22 03:13:55;;;;;;;9.25;5.65;;;;;;;9.80;75.72;99029.75;5007483;28;20021;-75
2021/09/22 03:16:21;;;;;;;8.40;5.60;;;;;;;9.86;75.96;99029.75;5009594;28;20025;-75
2021/09/22 03:18:47;;;;;;;8.52;5.82;;;;;;;9.93;75.40;99041.25;5008222;28;20394;-75
2021/09/22 03:21:12;;;;;;;9.50;6.55;;;;;;;9.97;75.45;99029.44;5006750;28;20033;-75
2021/09/22 03:23:38;;;;;;;11.10;7.05;;;;;;;10.02;75.69;99025.84;4991016;28;20290;-75
2021/09/22 03:26:04;;;;;;;10.60;6.97;;;;;;;10.03;75.18;99016.53;5006691;28;20026;-75
2021/09/22 03:28:30;;;;;;;10.38;6.82;;;;;;;10.04;74.58;99028.34;5007498;28;20036;-74
2021/09/22 03:30:55;;;;;;;13.02;8.63;;;;;;;10.05;75.14;99024.50;5006074;28;20168;-75
2021/09/22 03:33:21;;;;;;;12.07;7.40;;;;;;;10.03;75.10;99013.78;5007689;28;20061;-74
2021/09/22 03:35:46;;;;;;;10.68;7.57;;;;;;;10.04;75.26;99026.41;5008399;28;20022;-74
2021/09/22 03:38:12;;;;;;;10.90;7.50;;;;;;;10.06;75.53;99021.47;5013413;28;20044;-75
2021/09/22 03:40:38;;;;;;;9.45;6.55;;;;;;;10.10;75.42;99014.31;5007558;28;20066;-75
2021/09/22 03:43:04;;;;;;;8.82;5.95;;;;;;;10.14;75.44;99020.09;5004216;28;20800;-75
2021/09/22 03:45:29;;;;;;;9.10;6.30;;;;;;;10.18;75.21;99021.16;5004395;28;20034;-75
2021/09/22 03:47:55;;;;;;;9.23;6.30;;;;;;;10.23;75.11;99020.31;5004078;28;20026;-75
2021/09/22 03:50:21;;;;;;;11.65;7.15;;;;;;;10.18;75.15;99010.22;5005942;28;20085;-75
2021/09/22 03:52:47;;;;;;;10.57;6.95;;;;;;;10.19;74.77;99016.50;5007660;28;20029;-75
2021/09/22 03:55:12;;;;;;;11.18;7.75;;;;;;;10.14;74.29;99011.88;5008797;28;20037;-75
2021/09/22 03:57:38;;;;;;;10.20;7.25;;;;;;;10.15;74.67;99007.19;5004034;28;20194;-74
2021/09/22 04:00:05;;;;;;;14.35;8.90;;;;;;;10.20;74.97;99012.66;5004522;28;21391;-74
2021/09/22 04:02:30;;;;;;;13.00;8.48;;;;;;;10.22;74.53;99011.25;5005462;28;20334;-74
2021/09/22 04:04:55;;;;;;;12.20;8.05;;;;;;;10.28;74.96;99012.06;5005286;28;20041;-74
2021/09/22 04:07:21;;;;;;;10.30;6.20;;;;;;;10.30;75.23;99006.31;5008403;28;20137;-74
2021/09/22 04:09:46;;;;;;;7.90;5.50;;;;;;;10.32;74.09;99009.59;5008038;28;20033;-75
2021/09/22 04:12:12;;;;;;;9.00;5.68;;;;;;;10.31;74.97;99006.03;5007815;28;20026;-74
2021/09/22 04:14:37;;;;;;;9.15;6.30;;;;;;;10.31;74.60;99008.78;5008303;28;20527;-75
2021/09/22 04:17:02;;;;;;;8.70;6.00;;;;;;;10.34;75.23;99012.88;5006561;28;20042;-75
2021/09/22 04:19:28;;;;;;;7.53;4.85;;;;;;;10.36;75.21;99024.38;5007955;28;20029;-74
2021/09/22 04:21:53;;;;;;;9.38;5.70;;;;;;;10.36;74.66;99016.16;5008141;28;20030;-74
2021/09/22 04:24:19;;;;;;;10.80;6.35;;;;;;;10.28;74.23;99025.78;5007746;28;20026;-75
2021/09/22 04:26:44;;;;;;;11.90;6.82;;;;;;;10.21;74.43;99023.31;5007076;28;20042;-75
2021/09/22 04:29:10;;;;;;;11.05;6.25;;;;;;;10.22;74.09;99021.41;5007151;28;20140;-75
2021/09/22 04:31:37;;;;;;;10.13;6.03;;;;;;;10.18;73.92;99023.91;5007245;28;20030;-74
2021/09/22 04:34:04;;;;;;;9.77;5.90;;;;;;;10.13;74.24;99026.66;4990091;28;20042;-75
2021/09/22 04:36:29;;;;;;;10.32;6.03;;;;;;;10.12;73.41;99027.75;5006728;28;21249;-75
2021/09/22 04:38:55;;;;;;;11.30;7.20;;;;;;;10.14;74.29;99028.31;5008555;28;20029;-75
2021/09/22 04:41:20;;;;;;;10.27;6.38;;;;;;;10.15;74.05;99023.63;5008869;28;20389;-75
2021/09/22 04:43:46;;;;;;;11.20;7.57;;;;;;;10.17;74.29;99030.50;5011103;28;20040;-75
2021/09/22 04:46:11;;;;;;;10.32;6.68;;;;;;;10.19;73.90;99031.00;5011996;28;20030;-75
2021/09/22 04:48:38;;;;;;;12.45;7.78;;;;;;;10.24;74.64;99028.25;5011433;28;20029;-75
2021/09/22 04:51:04;;;;;;;11.65;7.25;;;;;;;10.28;73.94;99032.06;5010676;28;20475;-74
2021/09/22 04:53:29;;;;;;;7.82;5.45;;;;;;;10.27;74.08;99030.44;5011104;28;20025;-74
2021/09/22 04:55:55;;;;;;;9.65;5.85;;;;;;;10.25;74.30;99037.31;5010105;28;20033;-75
2021/09/22 04:58:20;;;;;;;7.25;4.90;;;;;;;10.20;74.01;99029.09;5010156;28;20034;-74
2021/09/22 05:00:46;;;;;;;9.02;5.70;;;;;;;10.15;74.08;99034.59;5009691;28;20049;-75
2021/09/22 05:03:11;;;;;;;9.93;6.78;;;;;;;10.09;73.73;99037.34;5011227;28;20453;-75
2021/09/22 05:05:37;;;;;;;8.18;6.10;;;;;;;10.03;73.86;99030.25;5012096;28;20057;-75
2021/09/22 05:08:02;;;;;;;9.07;5.93;;;;;;;10.01;73.82;99028.88;5011521;28;20780;-75
2021/09/22 05:10:28;;;;;;;8.65;5.57;;;;;;;10.02;74.19;99030.53;5010275;28;20065;-75
2021/09/22 05:12:53;;;;;;;7.57;4.47;;;;;;;10.02;74.07;99036.81;5011413;28;20075;-75
2021/09/22 05:15:19;;;;;;;8.30;5.00;;;;;;;10.01;73.89;99046.13;4994205;28;20025;-75
2021/09/22 05:17:44;;;;;;;9.57;5.32;;;;;;;10.04;74.46;99044.78;5010139;28;20085;-75
2021/09/22 05:20:11;;;;;;;13.23;7.70;;;;;;;10.03;74.66;99045.88;5009016;28;20034;-75
2021/09/22 05:22:36;;;;;;;10.30;6.85;;;;;;;9.99;73.83;99042.84;5010798;28;20040;-74
2021/09/22 05:25:03;;;;;;;12.82;7.25;;;;;;;10.02;74.20;99041.50;4994235;28;20128;-75
2021/09/22 05:27:29;;;;;;;11.50;7.30;;;;;;;10.03;74.17;99051.34;5010967;28;20030;-74
2021/09/22 05:29:54;;;;;;;11.60;7.47;;;;;;;10.04;74.42;99051.06;5008115;28;20038;-75
2021/09/22 05:32:19;;;;;;;12.90;7.40;;;;;;;10.06;74.80;99050.81;5010499;28;20453;-75
2021/09/22 05:34:45;;;;;;;8.43;6.00;;;;;;;10.12;74.36;99055.16;4993036;28;20129;-75
2021/09/22 05:37:10;;;;;;;9.90;6.25;;;;;;;10.18;74.72;99050.50;5011148;28;20064;-75
2021/09/22 05:39:36;;;;;;;8.23;5.10;;;;;;;10.19;74.52;99049.38;5010110;28;20037;-74
2021/09/22 05:42:02;;;;;;;6.82;4.18;;;;;;;10.18;73.50;99055.97;5010272;28;20068;-75
2021/09/22 05:44:28;;;;;;;7.28;4.00;;;;;;;10.18;73.89;99062.28;5009741;28;20526;-75
2021/09/22 05:46:53;;;;;;;6.22;4.35;;;;;;;10.18;73.53;99059.53;5010271;28;21664;-75
2021/09/22 05:49:18;;;;;;;7.70;4.70;;;;;;;10.16;73.82;99063.66;5008803;28;20100;-75
2021/09/22 05:51:44;;;;;;;7.18;3.88;;;;;;;10.23;74.35;99061.44;5008434;28;20041;-75
2021/09/22 05:54:09;;;;;;;6.93;4.35;;;;;;;10.24;73.92;99058.41;5010374;28;20053;-75
2021/09/22 05:56:35;;;;;;;9.35;6.75;;;;;;;10.22;73.74;99051.56;5010736;28;20026;-75
2021/09/22 05:59:00;;;;;;;11.27;6.15;;;;;;;10.20;73.88;99054.56;5009010;28;20101;-75
2021/09/22 06:01:26;;;;;;;14.65;8.70;;;;;;;10.19;73.61;99047.44;5011838;28;20037;-74
2021/09/22 06:03:51;;;;;;;13.02;7.47;;;;;;;10.25;73.72;99064.72;5007005;28;20502;-74
2021/09/22 06:06:17;;;;;;;11.98;5.63;;;;;;;10.25;73.89;99060.03;5006867;28;20033;-73
2021/09/22 06:08:42;;;;;;;9.52;5.57;;;;;;;10.26;73.70;99061.69;5007172;28;20554;-75
2021/09/22 06:11:08;;;;;;;9.63;6.20;;;;;;;10.27;73.57;99068.81;5005011;28;20022;-75
2021/09/22 06:13:33;;;;;;;12.20;5.68;;;;;;;10.24;73.27;99068.56;5005116;28;20021;-75
2021/09/22 06:15:59;;;;;;;8.52;5.03;;;;;;;10.24;73.44;99068.56;5009479;28;20037;-75
2021/09/22 06:18:24;;;;;;;8.30;5.03;;;;;;;10.21;73.74;99064.44;5008937;28;20421;-75
2021/09/22 06:20:50;;;;;;;8.25;4.85;;;;;;;10.18;73.40;99064.19;5007847;28;20044;-75
2021/09/22 06:23:15;;;;;;;8.25;4.45;;;;;;;10.21;73.55;99077.34;5003686;28;20113;-75
2021/09/22 06:25:41;;;;;;;5.75;4.10;;;;;;;10.20;73.91;99071.03;5008163;28;20454;-75
2021/09/22 06:28:07;;;;;;;8.65;5.43;;;;;;;10.19;73.91;99087.75;5007659;28;20026;-75
2021/09/22 06:30:33;;;;;;;8.27;4.85;;;;;;;10.19;73.76;99090.50;5009079;28;20060;-75
2021/09/22 06:32:59;;;;;;;6.60;4.32;;;;;;;10.21;73.64;99088.31;5008738;28;20022;-75
2021/09/22 06:35:24;;;;;;;8.20;4.70;;;;;;;10.21;73.87;99080.09;5010382;28;20020;-74
2021/09/22 06:37:50;;;;;;;6.35;3.75;;;;;;;10.20;73.72;99089.41;5010235;28;20514;-74
2021/09/22 06:40:18;;;;;;;7.72;5.28;;;;;;;10.22;73.44;99092.69;5011898;28;20028;-74
2021/09/22 06:42:44;;;;;;;8.32;5.05;;;;;;;10.24;73.94;99085.00;5010012;28;20029;-73
2021/09/22 06:45:11;;;;;;;9.43;5.43;;;;;;;10.26;73.70;99085.56;5007942;28;20034;-75
2021/09/22 06:47:36;;;;;;;8.45;4.78;;;;;;;10.28;73.75;99088.84;5006064;28;20030;-76
2021/09/22 06:50:03;;;;;;;8.68;6.72;;;;;;;10.30;74.52;99088.53;5006807;28;20068;-75
2021/09/22 06:52:29;;;;;;;8.70;5.78;;;;;;;10.28;73.61;99089.66;5010837;28;20042;-75
2021/09/22 06:54:55;;;;;;;8.85;6.15;;;;;;;10.26;73.74;99097.31;4992808;28;20030;-74
2021/09/22 06:57:21;;;;;;;8.60;6.10;;;;;;;10.25;73.90;99095.69;5011024;28;20022;-74
2021/09/22 06:59:46;;;;;;;8.38;5.78;;;;;;;10.30;73.85;99102.25;5011563;28;20521;-75
2021/09/22 07:02:12;;;;;;;8.85;6.22;;;;;;;10.31;73.32;99104.75;5010723;28;20581;-74
2021/09/22 07:04:38;;;;;;;12.10;8.30;;;;;;;10.30;73.85;99111.31;5009390;28;20049;-74
2021/09/22 07:07:05;;;;;;;13.40;9.25;;;;;;;10.32;74.10;99103.63;5005896;28;20038;-73
2021/09/22 07:09:30;;;;;;;14.00;8.30;;;;;;;10.33;73.76;99102.53;5005198;28;20045;-73
2021/09/22 07:11:57;;;;;;;14.35;8.75;;;;;;;10.35;74.04;99099.50;5009809;28;20034;-74
2021/09/22 07:14:22;;;;;;;12.07;8.55;;;;;;;10.34;73.61;99100.59;5007865;28;20013;-74
2021/09/22 07:16:48;;;;;;;14.30;8.82;;;;;;;10.37;74.59;99089.06;5006341;28;20033;-80
2021/09/22 07:19:13;;;;;;;16.15;9.98;;;;;;;10.41;74.26;99101.16;5025495;28;20071;-77
2021/09/22 07:21:38;;;;;;;11.18;7.93;;;;;;;10.48;74.26;99101.69;5008972;28;20026;-74
2021/09/22 07:24:04;;;;;;;13.02;8.27;;;;;;;10.49;74.00;99097.00;5009530;28;20041;-75
2021/09/22 07:26:30;;;;;;;12.75;7.55;;;;;;;10.47;74.56;99102.78;5007855;28;20528;-75
2021/09/22 07:28:55;;;;;;;9.88;5.35;;;;;;;10.49;73.31;99102.50;5005484;28;20029;-76
2021/09/22 07:31:21;;;;;;;10.77;6.20;;;;;;;10.48;73.42;99107.19;5004265;28;20021;-79
2021/09/22 07:33:47;;;;;;;9.50;5.30;;;;;;;10.49;73.82;99105.25;5008303;28;20033;-74
2021/09/22 07:36:12;;;;;;;9.68;5.95;;;;;;;10.53;73.91;99106.31;5010346;28;20080;-74
2021/09/22 07:38:38;;;;;;;8.10;4.60;;;;;;;10.59;73.80;99115.38;5009276;28;20095;-72
2021/09/22 07:41:04;;;;;;;8.93;5.47;;;;;;;10.66;74.05;99111.22;5010722;28;20396;-72
2021/09/22 07:43:29;;;;;;;8.43;5.60;;;;;;;10.71;73.65;99116.69;5009507;28;20037;-76
2021/09/22 07:45:55;;;;;;;6.38;4.95;;;;;;;10.75;74.02;99116.13;5009343;28;20022;-75
2021/09/22 07:48:21;;;;;;;5.07;4.03;;;;;;;10.78;73.68;99121.06;5009363;28;20030;-75
2021/09/22 07:50:47;;;;;;;8.70;4.60;;;;;;;10.81;73.58;99120.47;5014413;28;20490;-75
2021/09/22 07:53:13;;;;;;;6.72;4.55;;;;;;;10.81;73.67;99126.78;5004030;28;20122;-76
2021/09/22 07:55:38;;;;;;;10.43;6.53;;;;;;;10.82;73.56;99131.19;5009211;28;20029;-74
2021/09/22 07:58:04;;;;;;;9.77;5.80;;;;;;;10.81;73.08;99140.50;4991840;28;20030;-75
2021/09/22 08:00:30;;;;;;;8.77;5.88;;;;;;;10.84;73.38;99130.88;5010232;28;20030;-75
2021/09/22 08:02:58;;;;;;;7.20;5.18;;;;;;;10.87;73.33;99138.56;5009765;28;20458;-73
2021/09/22 08:05:24;;;;;;;7.85;5.43;;;;;;;10.91;72.96;99145.13;5018962;28;20045;-74
2021/09/22 08:07:49;;;;;;;10.63;6.78;;;;;;;10.97;73.05;99154.97;5020867;28;20635;-73
2021/09/22 08:10:17;;;;;;;9.25;6.45;;;;;;;10.97;73.01;99154.19;5014245;28;20041;-74
2021/09/22 08:12:44;;;;;;;8.88;5.25;;;;;;;10.97;73.28;99152.25;5010781;28;20037;-72
2021/09/22 08:15:10;;;;;;;7.78;5.40;;;;;;;10.98;73.15;99153.88;5009200;28;20084;-75
2021/09/22 08:17:36;;;;;;;6.30;4.90;;;;;;;10.99;73.04;99155.53;5009017;28;20026;-73
2021/09/22 08:20:03;;;;;;;7.28;4.90;;;;;;;10.98;72.70;99153.88;5009107;28;20088;-72
2021/09/22 08:22:28;;;;;;;9.43;6.07;;;;;;;11.00;72.11;99153.63;5008625;28;20033;-76
2021/09/22 08:24:54;;;;;;;9.77;5.57;;;;;;;11.04;72.79;99151.91;5009934;28;20110;-75
2021/09/22 08:27:19;;;;;;;10.07;6.07;;;;;;;11.10;72.54;99150.00;5009428;28;20053;-72
2021/09/22 08:29:45;;;;;;;9.77;5.75;;;;;;;11.20;72.58;99155.44;5023006;28;20060;-71
2021/09/22 08:32:10;;;;;;;8.13;5.35;;;;;;;11.24;72.70;99150.19;5024007;28;20397;-74
2021/09/22 08:34:36;;;;;;;8.70;5.35;;;;;;;11.23;72.39;99165.81;4985676;28;20026;-72
2021/09/22 08:37:04;;;;;;;12.90;6.72;;;;;;;11.23;72.48;99156.78;5008346;28;20036;-73
2021/09/22 08:39:32;;;;;;;11.63;6.70;;;;;;;11.22;72.03;99161.44;5009241;28;20014;-73
2021/09/22 08:41:57;;;;;;;8.80;5.18;;;;;;;11.20;71.97;99162.84;5008835;28;20021;-72
2021/09/22 08:44:23;;;;;;;7.00;5.00;;;;;;;11.21;72.29;99169.97;5009225;28;20393;-72
2021/09/22 08:46:49;;;;;;;7.18;4.40;;;;;;;11.20;72.08;99158.19;5008873;28;20044;-72
2021/09/22 08:49:15;;;;;;;9.95;6.05;;;;;;;11.20;71.63;99162.84;5011094;28;20050;-73
2021/09/22 08:51:41;;;;;;;9.15;5.53;;;;;;;11.23;71.98;99165.81;5007491;28;20056;-72
2021/09/22 08:54:07;;;;;;;10.48;6.53;;;;;;;11.24;71.71;99166.66;5006797;28;20025;-71
2021/09/22 08:56:36;;;;;;;9.48;6.72;;;;;;;11.26;71.88;99159.75;5009750;28;20030;-71
2021/09/22 08:59:02;;;;;;;7.72;5.28;;;;;;;11.30;71.98;99160.84;5008493;28;20030;-73
2021/09/22 09:01:27;;;;;;;8.70;5.78;;;;;;;11.35;71.96;99167.41;5008593;28;20386;-73
2021/09/22 09:03:53;;;;;;;9.52;5.70;;;;;;;11.37;71.69;99163.28;5007651;28;20133;-71
2021/09/22 09:06:21;;;;;;;7.82;5.82;;;;;;;11.39;72.18;99161.09;5008674;28;20034;-74
2021/09/22 09:08:48;;;;;;;9.45;6.28;;;;;;;11.40;71.79;99164.63;4989073;28;20053;-72
2021/09/22 09:11:14;;;;;;;7.80;5.60;;;;;;;11.41;71.43;99164.34;5008554;28;20748;-76
2021/09/22 09:13:48;;;;;;;9.23;6.35;;;;;;;11.42;72.08;99155.00;4990148;28;20029;-73
2021/09/22 09:16:22;;;;;;;10.50;6.82;;;;;;;11.45;70.91;99157.16;5007682;28;20044;-74
2021/09/22 09:18:55;;;;;;;7.90;5.68;;;;;;;11.51;71.63;99157.97;5007916;28;20113;-74
2021/09/22 09:21:23;;;;;;;12.27;7.35;;;;;;;11.54;71.68;99159.31;5007238;28;20022;-73
2021/09/22 09:23:57;;;;;;;9.27;6.95;;;;;;;11.59;71.47;99151.88;5006683;28;20504;-72
2021/09/22 09:26:25;;;;;;;10.98;7.65;;;;;;;11.67;71.84;99155.09;5006847;28;20026;-72
2021/09/22 09:28:56;;;;;;;39.05;28.85;;;;;;;11.73;71.71;99163.03;5010687;28;20127;-72
2021/09/22 09:31:29;;;;;;;86.70;60.45;;;;;;;11.80;71.27;99156.41;5011099;28;20464;-74
2021/09/22 09:33:56;;;;;;;36.63;28.00;;;;;;;11.87;71.55;99152.22;5009673;28;20034;-73
2021/09/22 09:36:23;;;;;;;12.13;8.38;;;;;;;11.86;70.67;99152.47;5010369;28;20152;-76
2021/09/22 09:39:11;;;;;;;79.82;55.22;;;;;;;11.93;71.28;99154.91;5011485;28;20054;-73
2021/09/22 09:41:42;;;;;;;154.25;101.35;;;;;;;11.95;70.57;99163.69;5011572;28;20022;-76
2021/09/22 09:44:11;;;;;;;57.03;37.72;;;;;;;11.96;70.95;99155.16;5010816;28;20056;-76
2021/09/22 09:46:37;;;;;;;146.20;101.07;;;;;;;12.06;70.97;99154.25;5008510;28;20080;-77
2021/09/22 09:49:09;;;;;;;39.45;29.58;;;;;;;12.18;70.98;99157.44;5008405;28;20045;-76
2021/09/22 09:51:46;;;;;;;47.15;37.38;;;;;;;12.28;70.94;99156.53;5010158;28;20489;-74
2021/09/22 09:54:11;;;;;;;18.85;10.20;;;;;;;12.33;70.66;99161.16;5020475;28;20759;-75
2021/09/22 09:56:37;;;;;;;23.50;16.30;;;;;;;12.32;70.05;99162.28;5010364;28;20033;-73
2021/09/22 09:59:03;;;;;;;9.50;7.10;;;;;;;12.37;70.20;99164.97;5007199;28;20453;-73
2021/09/22 10:01:45;;;;;;;15.38;11.52;;;;;;;12.46;69.96;99174.22;5010344;28;20030;-73
2021/09/22 10:04:15;;;;;;;9.50;7.25;;;;;;;12.60;69.99;99174.38;5015747;28;20163;-73
2021/09/22 10:06:41;;;;;;;11.10;6.85;;;;;;;12.63;69.49;99171.00;5011497;28;20121;-77
2021/09/22 10:09:07;;;;;;;9.48;6.95;;;;;;;12.56;68.38;99166.97;5009026;28;20393;-76
2021/09/22 10:11:34;;;;;;;13.02;8.32;;;;;;;12.52;68.78;99175.00;5007808;28;20222;-73
2021/09/22 10:14:01;;;;;;;13.80;9.63;;;;;;;12.54;69.03;99177.44;5010840;28;20490;-74
2021/09/22 10:16:27;;;;;;;13.18;8.45;;;;;;;12.55;68.52;99173.59;5010641;28;20022;-74
2021/09/22 10:18:53;;;;;;;17.05;8.95;;;;;;;12.56;68.34;99169.72;5010141;28;20017;-75
2021/09/22 10:21:20;;;;;;;13.75;8.45;;;;;;;12.61;68.72;99175.19;5000188;28;20033;-76
2021/09/22 10:23:46;;;;;;;20.70;10.27;;;;;;;12.66;68.68;99173.16;5025711;28;20482;-75
2021/09/22 10:26:12;;;;;;;10.02;7.25;;;;;;;12.76;68.69;99168.66;4991626;28;20120;-74
2021/09/22 10:28:41;;;;;;;14.10;9.10;;;;;;;12.84;68.44;99175.47;5010310;28;20525;-73
2021/09/22 10:31:22;;;;;;;12.70;8.00;;;;;;;12.93;68.25;99169.03;5020266;28;20021;-74
2021/09/22 10:33:48;;;;;;;10.07;7.15;;;;;;;13.00;68.36;99168.66;5016675;28;20057;-73
2021/09/22 10:36:15;;;;;;;11.18;7.32;;;;;;;13.04;66.91;99166.94;5011774;28;20069;-74
2021/09/22 10:38:41;;;;;;;11.73;9.13;;;;;;;13.00;66.32;99173.34;5008625;28;20034;-74
2021/09/22 10:41:07;;;;;;;8.40;5.97;;;;;;;13.03;66.65;99170.00;5007475;28;20549;-73
2021/09/22 10:43:41;;;;;;;8.13;5.47;;;;;;;13.05;66.20;99165.84;5009349;28;20489;-73
2021/09/22 10:46:06;;;;;;;7.82;5.85;;;;;;;13.05;65.77;99174.09;5009574;28;20056;-75
2021/09/22 10:48:56;;;;;;;6.07;4.78;;;;;;;13.04;65.36;99174.41;4991739;28;20050;-74
2021/09/22 10:51:39;;;;;;;9.93;6.00;;;;;;;12.91;65.16;99175.91;5008412;28;20069;-74
2021/09/22 10:54:16;;;;;;;8.15;5.45;;;;;;;12.76;64.49;99180.53;5010656;28;20038;-74
2021/09/22 10:56:51;;;;;;;7.05;6.15;;;;;;;12.69;64.39;99182.78;5009542;28;20033;-75
2021/09/22 10:59:39;;;;;;;8.30;5.88;;;;;;;12.66;64.31;99183.38;5009019;28;20374;-74
2021/09/22 11:02:08;;;;;;;7.50;5.88;;;;;;;12.65;64.96;99179.00;5009341;28;20124;-75
2021/09/22 11:04:54;;;;;;;;;;;;;;;12.65;64.78;99179.78;4990741;28;20042;-76
2021/09/22 11:07:20;;;;;;;9.05;6.15;;;;;;;12.65;65.29;99179.78;5005677;28;19965;-75
2021/09/22 11:09:46;;;;;;;6.78;5.43;;;;;;;12.66;65.17;99175.13;4987015;28;20038;-74
2021/09/22 11:12:13;;;;;;;10.10;8.57;;;;;;;12.68;65.62;99185.81;5007334;28;20344;-74
2021/09/22 11:14:42;;;;;;;7.35;5.60;;;;;;;12.67;64.66;99182.25;5001147;28;20098;-74
2021/09/22 11:17:12;;;;;;;8.00;5.95;;;;;;;12.62;64.56;99185.91;5001896;28;20026;-74
2021/09/22 11:19:40;;;;;;;7.43;5.82;;;;;;;12.62;65.09;99187.81;5004603;28;20032;-73
2021/09/22 11:22:14;;;;;;;9.27;6.50;;;;;;;12.60;65.20;99184.53;5007267;28;20034;-75
2021/09/22 11:24:41;;;;;;;10.80;6.50;;;;;;;12.58;64.69;99179.34;5013829;28;20033;-74
2021/09/22 11:27:19;;;;;;;9.55;7.30;;;;;;;12.53;64.64;99173.88;5021248;28;20040;-74
2021/09/22 11:29:48;;;;;;;11.90;8.23;;;;;;;12.49;64.51;99178.34;5016125;28;20038;-75